Terminal Aerodrome Forecast
Issued by NWS Omaha/Valley, NE

Home | Current Version | Previous Version | Text Only | Print | Product List | Glossary On
Versions: 1 2 3 4 5 6 7 8 9 10 11 12 13 14 15 16 17 18 19 20 21 22 23 24 25 26 27 28 29 30 31 32 33 34
000
FTUS43 KOAX 010535
TAFOMA
TAF
KOMA 010535Z 0106/0206 19006KT P6SM SCT040 OVC150
      TEMPO 0106/0108 4SM -TSRA BR BKN040CB
     FM010900 12006KT 5SM BR OVC050
     FM011200 10008KT 5SM BR OVC120
     FM011600 09009KT P6SM BKN150=

USA.gov is the U.S. government's official web portal to all federal, state and local government web resources and services.